sensor_id;sensor_type;location;lat;lon;timestamp;P1;durP1;ratioP1;P2;durP2;ratioP2
51266;SDS011;37338;47.426;19.204;2023-11-19T00:02:12;9.20;;;5.97;;
51266;SDS011;37338;47.426;19.204;2023-11-19T00:04:38;11.00;;;5.40;;
51266;SDS011;37338;47.426;19.204;2023-11-19T00:07:06;9.23;;;5.60;;
51266;SDS011;37338;47.426;19.204;2023-11-19T00:09:33;14.27;;;6.60;;
51266;SDS011;37338;47.426;19.204;2023-11-19T00:11:58;11.10;;;6.03;;
51266;SDS011;37338;47.426;19.204;2023-11-19T00:14:25;11.00;;;6.47;;
51266;SDS011;37338;47.426;19.204;2023-11-19T00:16:51;8.90;;;6.17;;
51266;SDS011;37338;47.426;19.204;2023-11-19T00:19:16;9.23;;;6.33;;
51266;SDS011;37338;47.426;19.204;2023-11-19T00:21:42;9.20;;;6.20;;
51266;SDS011;37338;47.426;19.204;2023-11-19T00:24:07;8.93;;;6.37;;
51266;SDS011;37338;47.426;19.204;2023-11-19T00:26:33;8.90;;;6.93;;
51266;SDS011;37338;47.426;19.204;2023-11-19T00:28:59;9.87;;;7.30;;
51266;SDS011;37338;47.426;19.204;2023-11-19T00:31:24;10.73;;;6.23;;
51266;SDS011;37338;47.426;19.204;2023-11-19T00:33:51;12.63;;;6.53;;
51266;SDS011;37338;47.426;19.204;2023-11-19T00:36:16;10.20;;;6.13;;
51266;SDS011;37338;47.426;19.204;2023-11-19T00:38:42;11.10;;;6.30;;
51266;SDS011;37338;47.426;19.204;2023-11-19T00:41:07;9.70;;;6.40;;
51266;SDS011;37338;47.426;19.204;2023-11-19T00:43:33;14.37;;;7.03;;
51266;SDS011;37338;47.426;19.204;2023-11-19T00:45:58;11.20;;;7.10;;
51266;SDS011;37338;47.426;19.204;2023-11-19T00:48:23;12.77;;;8.13;;
51266;SDS011;37338;47.426;19.204;2023-11-19T00:50:49;16.83;;;9.90;;
51266;SDS011;37338;47.426;19.204;2023-11-19T00:53:14;16.07;;;10.07;;
51266;SDS011;37338;47.426;19.204;2023-11-19T00:55:39;13.40;;;8.53;;
51266;SDS011;37338;47.426;19.204;2023-11-19T00:58:05;16.20;;;9.53;;
51266;SDS011;37338;47.426;19.204;2023-11-19T01:00:30;16.97;;;10.80;;
51266;SDS011;37338;47.426;19.204;2023-11-19T01:02:57;13.77;;;9.27;;
51266;SDS011;37338;47.426;19.204;2023-11-19T01:05:22;14.40;;;9.77;;
51266;SDS011;37338;47.426;19.204;2023-11-19T01:07:48;16.17;;;9.57;;
51266;SDS011;37338;47.426;19.204;2023-11-19T01:10:14;12.03;;;8.77;;
51266;SDS011;37338;47.426;19.204;2023-11-19T01:12:41;15.37;;;9.87;;
51266;SDS011;37338;47.426;19.204;2023-11-19T01:15:07;12.80;;;8.53;;
51266;SDS011;37338;47.426;19.204;2023-11-19T01:17:33;13.23;;;8.57;;
51266;SDS011;37338;47.426;19.204;2023-11-19T01:19:58;13.33;;;9.30;;
51266;SDS011;37338;47.426;19.204;2023-11-19T01:22:23;13.33;;;8.10;;
51266;SDS011;37338;47.426;19.204;2023-11-19T01:24:49;15.83;;;9.80;;
51266;SDS011;37338;47.426;19.204;2023-11-19T01:27:14;13.70;;;8.33;;
51266;SDS011;37338;47.426;19.204;2023-11-19T01:29:40;13.27;;;8.80;;
51266;SDS011;37338;47.426;19.204;2023-11-19T01:32:07;14.77;;;9.20;;
51266;SDS011;37338;47.426;19.204;2023-11-19T01:34:32;15.47;;;9.33;;
51266;SDS011;37338;47.426;19.204;2023-11-19T01:36:58;14.57;;;10.03;;
51266;SDS011;37338;47.426;19.204;2023-11-19T01:39:23;13.97;;;9.30;;
51266;SDS011;37338;47.426;19.204;2023-11-19T01:41:48;13.93;;;9.20;;
51266;SDS011;37338;47.426;19.204;2023-11-19T01:44:14;13.93;;;8.83;;
51266;SDS011;37338;47.426;19.204;2023-11-19T01:46:43;13.37;;;9.03;;
51266;SDS011;37338;47.426;19.204;2023-11-19T01:49:10;15.27;;;9.40;;
51266;SDS011;37338;47.426;19.204;2023-11-19T01:51:37;18.03;;;10.77;;
51266;SDS011;37338;47.426;19.204;2023-11-19T01:54:03;14.30;;;9.23;;
51266;SDS011;37338;47.426;19.204;2023-11-19T01:56:28;13.97;;;9.40;;
51266;SDS011;37338;47.426;19.204;2023-11-19T01:58:55;14.00;;;9.87;;
51266;SDS011;37338;47.426;19.204;2023-11-19T02:01:21;13.37;;;8.87;;
51266;SDS011;37338;47.426;19.204;2023-11-19T02:03:47;13.80;;;8.63;;
51266;SDS011;37338;47.426;19.204;2023-11-19T02:06:12;15.53;;;8.80;;
51266;SDS011;37338;47.426;19.204;2023-11-19T02:08:38;15.87;;;9.63;;
51266;SDS011;37338;47.426;19.204;2023-11-19T02:11:04;15.60;;;9.90;;
51266;SDS011;37338;47.426;19.204;2023-11-19T02:13:32;14.80;;;9.33;;
51266;SDS011;37338;47.426;19.204;2023-11-19T02:15:57;14.13;;;9.80;;
51266;SDS011;37338;47.426;19.204;2023-11-19T02:18:23;17.03;;;10.87;;
51266;SDS011;37338;47.426;19.204;2023-11-19T02:20:52;16.67;;;10.30;;
51266;SDS011;37338;47.426;19.204;2023-11-19T02:23:21;16.13;;;10.17;;
51266;SDS011;37338;47.426;19.204;2023-11-19T02:25:47;15.07;;;9.93;;
51266;SDS011;37338;47.426;19.204;2023-11-19T02:28:17;14.47;;;9.13;;
51266;SDS011;37338;47.426;19.204;2023-11-19T02:30:43;13.03;;;9.73;;
51266;SDS011;37338;47.426;19.204;2023-11-19T02:33:08;15.67;;;9.53;;
51266;SDS011;37338;47.426;19.204;2023-11-19T02:35:34;19.40;;;9.53;;
51266;SDS011;37338;47.426;19.204;2023-11-19T02:37:59;16.73;;;10.00;;
51266;SDS011;37338;47.426;19.204;2023-11-19T02:40:32;15.93;;;10.15;;
51266;SDS011;37338;47.426;19.204;2023-11-19T02:42:57;16.23;;;9.73;;
51266;SDS011;37338;47.426;19.204;2023-11-19T02:45:23;17.90;;;10.90;;
51266;SDS011;37338;47.426;19.204;2023-11-19T02:47:50;18.13;;;10.57;;
51266;SDS011;37338;47.426;19.204;2023-11-19T02:50:16;17.43;;;10.33;;
51266;SDS011;37338;47.426;19.204;2023-11-19T02:52:42;18.57;;;9.97;;
51266;SDS011;37338;47.426;19.204;2023-11-19T02:55:09;19.30;;;11.13;;
51266;SDS011;37338;47.426;19.204;2023-11-19T02:57:37;21.03;;;10.30;;
51266;SDS011;37338;47.426;19.204;2023-11-19T03:00:16;18.30;;;10.80;;
51266;SDS011;37338;47.426;19.204;2023-11-19T03:02:43;21.50;;;11.17;;
51266;SDS011;37338;47.426;19.204;2023-11-19T03:05:13;20.80;;;11.30;;
51266;SDS011;37338;47.426;19.204;2023-11-19T03:07:40;18.37;;;11.90;;
51266;SDS011;37338;47.426;19.204;2023-11-19T03:10:07;17.90;;;10.90;;
51266;SDS011;37338;47.426;19.204;2023-11-19T03:12:34;19.90;;;10.27;;
51266;SDS011;37338;47.426;19.204;2023-11-19T03:14:59;16.97;;;10.57;;
51266;SDS011;37338;47.426;19.204;2023-11-19T03:17:24;16.23;;;9.83;;
51266;SDS011;37338;47.426;19.204;2023-11-19T03:19:50;17.70;;;10.63;;
51266;SDS011;37338;47.426;19.204;2023-11-19T03:22:15;16.50;;;10.80;;
51266;SDS011;37338;47.426;19.204;2023-11-19T03:24:41;16.37;;;10.27;;
51266;SDS011;37338;47.426;19.204;2023-11-19T03:27:06;15.17;;;9.23;;
51266;SDS011;37338;47.426;19.204;2023-11-19T03:29:31;18.67;;;12.13;;
51266;SDS011;37338;47.426;19.204;2023-11-19T03:31:57;18.13;;;10.33;;
51266;SDS011;37338;47.426;19.204;2023-11-19T03:34:22;17.47;;;10.33;;
51266;SDS011;37338;47.426;19.204;2023-11-19T03:36:47;15.27;;;9.33;;
51266;SDS011;37338;47.426;19.204;2023-11-19T03:39:14;18.60;;;11.07;;
51266;SDS011;37338;47.426;19.204;2023-11-19T03:41:39;18.63;;;10.67;;
51266;SDS011;37338;47.426;19.204;2023-11-19T03:44:04;17.23;;;10.47;;
51266;SDS011;37338;47.426;19.204;2023-11-19T03:46:30;15.37;;;10.60;;
51266;SDS011;37338;47.426;19.204;2023-11-19T03:48:55;14.80;;;10.13;;
51266;SDS011;37338;47.426;19.204;2023-11-19T03:51:21;17.97;;;10.60;;
51266;SDS011;37338;47.426;19.204;2023-11-19T03:53:47;15.57;;;10.90;;
51266;SDS011;37338;47.426;19.204;2023-11-19T03:56:12;20.90;;;10.37;;
51266;SDS011;37338;47.426;19.204;2023-11-19T03:58:38;16.77;;;10.07;;
51266;SDS011;37338;47.426;19.204;2023-11-19T04:01:04;18.43;;;10.27;;
51266;SDS011;37338;47.426;19.204;2023-11-19T04:03:30;15.87;;;9.47;;
51266;SDS011;37338;47.426;19.204;2023-11-19T04:05:55;17.33;;;10.67;;
51266;SDS011;37338;47.426;19.204;2023-11-19T04:08:21;18.27;;;10.20;;
51266;SDS011;37338;47.426;19.204;2023-11-19T04:10:46;16.43;;;10.30;;
51266;SDS011;37338;47.426;19.204;2023-11-19T04:13:12;15.13;;;10.70;;
51266;SDS011;37338;47.426;19.204;2023-11-19T04:15:37;17.87;;;10.00;;
51266;SDS011;37338;47.426;19.204;2023-11-19T04:18:03;18.13;;;10.53;;
51266;SDS011;37338;47.426;19.204;2023-11-19T04:20:28;16.57;;;10.23;;
51266;SDS011;37338;47.426;19.204;2023-11-19T04:22:54;20.17;;;11.60;;
51266;SDS011;37338;47.426;19.204;2023-11-19T04:25:19;18.50;;;11.47;;
51266;SDS011;37338;47.426;19.204;2023-11-19T04:27:44;21.33;;;12.53;;
51266;SDS011;37338;47.426;19.204;2023-11-19T04:30:10;16.83;;;10.23;;
51266;SDS011;37338;47.426;19.204;2023-11-19T04:32:36;18.40;;;11.10;;
51266;SDS011;37338;47.426;19.204;2023-11-19T04:35:02;20.23;;;12.33;;
51266;SDS011;37338;47.426;19.204;2023-11-19T04:37:28;19.77;;;11.67;;
51266;SDS011;37338;47.426;19.204;2023-11-19T04:39:53;21.87;;;12.37;;
51266;SDS011;37338;47.426;19.204;2023-11-19T04:42:18;19.13;;;12.07;;
51266;SDS011;37338;47.426;19.204;2023-11-19T04:44:44;18.50;;;10.90;;
51266;SDS011;37338;47.426;19.204;2023-11-19T04:47:10;19.27;;;11.23;;
51266;SDS011;37338;47.426;19.204;2023-11-19T04:49:39;20.37;;;12.30;;
51266;SDS011;37338;47.426;19.204;2023-11-19T04:52:10;21.47;;;12.70;;
51266;SDS011;37338;47.426;19.204;2023-11-19T04:54:40;22.20;;;13.40;;
51266;SDS011;37338;47.426;19.204;2023-11-19T04:57:08;21.90;;;12.97;;
51266;SDS011;37338;47.426;19.204;2023-11-19T04:59:37;21.60;;;13.50;;
51266;SDS011;37338;47.426;19.204;2023-11-19T05:02:03;23.77;;;13.97;;
51266;SDS011;37338;47.426;19.204;2023-11-19T05:04:29;22.13;;;12.87;;
51266;SDS011;37338;47.426;19.204;2023-11-19T05:06:55;23.40;;;13.90;;
51266;SDS011;37338;47.426;19.204;2023-11-19T05:09:20;24.37;;;13.70;;
51266;SDS011;37338;47.426;19.204;2023-11-19T05:11:46;22.77;;;13.50;;
51266;SDS011;37338;47.426;19.204;2023-11-19T05:14:12;19.80;;;11.83;;
51266;SDS011;37338;47.426;19.204;2023-11-19T05:16:40;23.80;;;13.60;;
51266;SDS011;37338;47.426;19.204;2023-11-19T05:19:06;22.23;;;13.83;;
51266;SDS011;37338;47.426;19.204;2023-11-19T05:21:32;20.67;;;13.20;;
51266;SDS011;37338;47.426;19.204;2023-11-19T05:23:58;18.63;;;12.53;;
51266;SDS011;37338;47.426;19.204;2023-11-19T05:26:24;23.40;;;13.73;;
51266;SDS011;37338;47.426;19.204;2023-11-19T05:28:49;25.93;;;15.53;;
51266;SDS011;37338;47.426;19.204;2023-11-19T05:31:15;22.57;;;15.07;;
51266;SDS011;37338;47.426;19.204;2023-11-19T05:33:42;22.53;;;13.97;;
51266;SDS011;37338;47.426;19.204;2023-11-19T05:36:07;26.33;;;14.90;;
51266;SDS011;37338;47.426;19.204;2023-11-19T05:38:36;22.73;;;13.07;;
51266;SDS011;37338;47.426;19.204;2023-11-19T05:41:04;19.17;;;12.30;;
51266;SDS011;37338;47.426;19.204;2023-11-19T05:43:30;21.43;;;12.70;;
51266;SDS011;37338;47.426;19.204;2023-11-19T05:45:56;21.50;;;12.23;;
51266;SDS011;37338;47.426;19.204;2023-11-19T05:48:21;22.53;;;12.33;;
51266;SDS011;37338;47.426;19.204;2023-11-19T05:50:47;24.07;;;13.90;;
51266;SDS011;37338;47.426;19.204;2023-11-19T05:53:14;23.27;;;13.90;;
51266;SDS011;37338;47.426;19.204;2023-11-19T05:55:40;26.13;;;13.13;;
51266;SDS011;37338;47.426;19.204;2023-11-19T05:58:13;20.23;;;12.43;;
51266;SDS011;37338;47.426;19.204;2023-11-19T06:00:39;22.93;;;13.20;;
51266;SDS011;37338;47.426;19.204;2023-11-19T06:03:05;19.33;;;13.00;;
51266;SDS011;37338;47.426;19.204;2023-11-19T06:05:32;24.00;;;13.80;;
51266;SDS011;37338;47.426;19.204;2023-11-19T06:07:58;24.70;;;13.00;;
51266;SDS011;37338;47.426;19.204;2023-11-19T06:10:23;23.73;;;12.67;;
51266;SDS011;37338;47.426;19.204;2023-11-19T06:12:54;23.60;;;13.30;;
51266;SDS011;37338;47.426;19.204;2023-11-19T06:15:22;23.17;;;13.10;;
51266;SDS011;37338;47.426;19.204;2023-11-19T06:17:48;26.03;;;14.63;;
51266;SDS011;37338;47.426;19.204;2023-11-19T06:20:13;26.87;;;13.50;;
51266;SDS011;37338;47.426;19.204;2023-11-19T06:22:39;26.40;;;12.93;;
51266;SDS011;37338;47.426;19.204;2023-11-19T06:25:07;21.73;;;12.57;;
51266;SDS011;37338;47.426;19.204;2023-11-19T06:27:33;23.00;;;13.90;;
51266;SDS011;37338;47.426;19.204;2023-11-19T06:29:58;23.97;;;13.80;;
51266;SDS011;37338;47.426;19.204;2023-11-19T06:32:24;21.07;;;13.03;;
51266;SDS011;37338;47.426;19.204;2023-11-19T06:34:49;23.07;;;14.03;;
51266;SDS011;37338;47.426;19.204;2023-11-19T06:37:15;22.83;;;14.00;;
51266;SDS011;37338;47.426;19.204;2023-11-19T06:39:40;22.40;;;12.80;;
51266;SDS011;37338;47.426;19.204;2023-11-19T06:42:05;19.60;;;12.30;;
51266;SDS011;37338;47.426;19.204;2023-11-19T06:44:32;17.87;;;12.03;;
51266;SDS011;37338;47.426;19.204;2023-11-19T06:46:57;17.87;;;11.50;;
51266;SDS011;37338;47.426;19.204;2023-11-19T06:49:23;22.27;;;12.37;;
51266;SDS011;37338;47.426;19.204;2023-11-19T06:51:49;18.70;;;12.40;;
51266;SDS011;37338;47.426;19.204;2023-11-19T06:54:15;20.57;;;12.33;;
51266;SDS011;37338;47.426;19.204;2023-11-19T06:56:41;22.50;;;12.83;;
51266;SDS011;37338;47.426;19.204;2023-11-19T06:59:06;22.93;;;14.37;;
51266;SDS011;37338;47.426;19.204;2023-11-19T07:01:38;25.57;;;15.90;;
51266;SDS011;37338;47.426;19.204;2023-11-19T07:04:03;21.87;;;13.80;;
51266;SDS011;37338;47.426;19.204;2023-11-19T07:06:34;22.67;;;13.50;;
51266;SDS011;37338;47.426;19.204;2023-11-19T07:09:00;21.20;;;15.63;;
51266;SDS011;37338;47.426;19.204;2023-11-19T07:11:37;25.83;;;16.23;;
51266;SDS011;37338;47.426;19.204;2023-11-19T07:14:03;26.37;;;14.33;;
51266;SDS011;37338;47.426;19.204;2023-11-19T07:16:29;25.57;;;14.50;;
51266;SDS011;37338;47.426;19.204;2023-11-19T07:18:55;19.00;;;12.17;;
51266;SDS011;37338;47.426;19.204;2023-11-19T07:21:20;16.13;;;10.53;;
51266;SDS011;37338;47.426;19.204;2023-11-19T07:23:46;18.67;;;11.47;;
51266;SDS011;37338;47.426;19.204;2023-11-19T07:26:11;21.00;;;9.83;;
51266;SDS011;37338;47.426;19.204;2023-11-19T07:28:37;20.73;;;11.03;;
51266;SDS011;37338;47.426;19.204;2023-11-19T07:31:05;15.37;;;10.63;;
51266;SDS011;37338;47.426;19.204;2023-11-19T07:33:33;13.80;;;9.27;;
51266;SDS011;37338;47.426;19.204;2023-11-19T07:35:58;15.63;;;9.60;;
51266;SDS011;37338;47.426;19.204;2023-11-19T07:38:24;12.77;;;9.50;;
51266;SDS011;37338;47.426;19.204;2023-11-19T07:40:49;14.30;;;9.83;;
51266;SDS011;37338;47.426;19.204;2023-11-19T07:43:14;13.00;;;8.87;;
51266;SDS011;37338;47.426;19.204;2023-11-19T07:45:40;15.67;;;10.67;;
51266;SDS011;37338;47.426;19.204;2023-11-19T07:48:08;15.43;;;10.33;;
51266;SDS011;37338;47.426;19.204;2023-11-19T07:50:34;18.57;;;12.70;;
51266;SDS011;37338;47.426;19.204;2023-11-19T07:52:59;16.83;;;10.50;;
51266;SDS011;37338;47.426;19.204;2023-11-19T07:55:25;20.07;;;12.30;;
51266;SDS011;37338;47.426;19.204;2023-11-19T07:57:51;23.03;;;13.80;;
51266;SDS011;37338;47.426;19.204;2023-11-19T08:00:17;13.57;;;9.37;;
51266;SDS011;37338;47.426;19.204;2023-11-19T08:02:42;13.83;;;9.00;;
51266;SDS011;37338;47.426;19.204;2023-11-19T08:05:08;14.83;;;9.20;;
51266;SDS011;37338;47.426;19.204;2023-11-19T08:07:33;18.27;;;10.57;;
51266;SDS011;37338;47.426;19.204;2023-11-19T08:09:59;12.03;;;9.00;;
51266;SDS011;37338;47.426;19.204;2023-11-19T08:12:25;13.27;;;9.60;;
51266;SDS011;37338;47.426;19.204;2023-11-19T08:14:50;13.80;;;9.13;;
51266;SDS011;37338;47.426;19.204;2023-11-19T08:17:16;13.67;;;8.80;;
51266;SDS011;37338;47.426;19.204;2023-11-19T08:19:41;13.30;;;10.03;;
51266;SDS011;37338;47.426;19.204;2023-11-19T08:22:07;14.80;;;10.10;;
51266;SDS011;37338;47.426;19.204;2023-11-19T08:24:34;12.60;;;9.80;;
51266;SDS011;37338;47.426;19.204;2023-11-19T08:26:59;14.27;;;9.83;;
51266;SDS011;37338;47.426;19.204;2023-11-19T08:29:24;13.73;;;9.73;;
51266;SDS011;37338;47.426;19.204;2023-11-19T08:31:50;15.73;;;10.57;;
51266;SDS011;37338;47.426;19.204;2023-11-19T08:34:15;13.07;;;9.43;;
51266;SDS011;37338;47.426;19.204;2023-11-19T08:36:41;11.73;;;8.83;;
51266;SDS011;37338;47.426;19.204;2023-11-19T08:39:06;15.17;;;8.67;;
51266;SDS011;37338;47.426;19.204;2023-11-19T08:41:33;12.60;;;8.60;;
51266;SDS011;37338;47.426;19.204;2023-11-19T08:43:59;13.37;;;8.47;;
51266;SDS011;37338;47.426;19.204;2023-11-19T08:46:24;15.27;;;10.73;;
51266;SDS011;37338;47.426;19.204;2023-11-19T08:48:51;19.33;;;12.77;;
51266;SDS011;37338;47.426;19.204;2023-11-19T08:51:16;22.60;;;15.83;;
51266;SDS011;37338;47.426;19.204;2023-11-19T08:53:42;24.30;;;14.80;;
51266;SDS011;37338;47.426;19.204;2023-11-19T08:56:07;24.70;;;15.10;;
51266;SDS011;37338;47.426;19.204;2023-11-19T08:58:32;19.90;;;13.10;;
51266;SDS011;37338;47.426;19.204;2023-11-19T09:00:58;20.80;;;13.63;;
51266;SDS011;37338;47.426;19.204;2023-11-19T09:03:23;21.17;;;13.40;;
51266;SDS011;37338;47.426;19.204;2023-11-19T09:05:51;21.67;;;14.43;;
51266;SDS011;37338;47.426;19.204;2023-11-19T09:08:17;20.90;;;14.13;;
51266;SDS011;37338;47.426;19.204;2023-11-19T09:10:42;17.07;;;12.10;;
51266;SDS011;37338;47.426;19.204;2023-11-19T09:13:08;20.07;;;13.73;;
51266;SDS011;37338;47.426;19.204;2023-11-19T09:15:33;17.97;;;12.83;;
51266;SDS011;37338;47.426;19.204;2023-11-19T09:17:58;14.70;;;11.73;;
51266;SDS011;37338;47.426;19.204;2023-11-19T09:20:24;18.60;;;12.20;;
51266;SDS011;37338;47.426;19.204;2023-11-19T09:22:49;13.70;;;9.40;;
51266;SDS011;37338;47.426;19.204;2023-11-19T09:25:14;12.70;;;8.87;;
51266;SDS011;37338;47.426;19.204;2023-11-19T09:27:43;17.70;;;9.07;;
51266;SDS011;37338;47.426;19.204;2023-11-19T09:30:09;26.63;;;15.73;;
51266;SDS011;37338;47.426;19.204;2023-11-19T09:32:35;25.57;;;15.30;;
51266;SDS011;37338;47.426;19.204;2023-11-19T09:35:00;17.37;;;11.67;;
51266;SDS011;37338;47.426;19.204;2023-11-19T09:37:26;17.50;;;11.57;;
51266;SDS011;37338;47.426;19.204;2023-11-19T09:39:51;15.67;;;9.93;;
51266;SDS011;37338;47.426;19.204;2023-11-19T09:42:18;17.33;;;9.53;;
51266;SDS011;37338;47.426;19.204;2023-11-19T09:44:44;12.93;;;8.97;;
51266;SDS011;37338;47.426;19.204;2023-11-19T09:47:10;13.53;;;10.03;;
51266;SDS011;37338;47.426;19.204;2023-11-19T09:49:36;14.27;;;11.17;;
51266;SDS011;37338;47.426;19.204;2023-11-19T09:52:02;19.77;;;10.73;;
51266;SDS011;37338;47.426;19.204;2023-11-19T09:54:28;14.50;;;9.23;;
51266;SDS011;37338;47.426;19.204;2023-11-19T09:56:54;12.93;;;9.27;;
51266;SDS011;37338;47.426;19.204;2023-11-19T09:59:24;15.67;;;9.23;;
51266;SDS011;37338;47.426;19.204;2023-11-19T10:01:50;16.90;;;11.13;;
51266;SDS011;37338;47.426;19.204;2023-11-19T10:04:16;14.77;;;10.93;;
51266;SDS011;37338;47.426;19.204;2023-11-19T10:06:42;18.43;;;11.83;;
51266;SDS011;37338;47.426;19.204;2023-11-19T10:09:07;18.60;;;12.40;;
51266;SDS011;37338;47.426;19.204;2023-11-19T10:11:33;17.50;;;12.90;;
51266;SDS011;37338;47.426;19.204;2023-11-19T10:13:59;19.67;;;13.77;;
51266;SDS011;37338;47.426;19.204;2023-11-19T10:16:28;20.73;;;12.37;;
51266;SDS011;37338;47.426;19.204;2023-11-19T10:18:57;16.38;;;12.20;;
51266;SDS011;37338;47.426;19.204;2023-11-19T10:21:23;15.43;;;11.80;;
51266;SDS011;37338;47.426;19.204;2023-11-19T10:23:55;19.20;;;12.10;;
51266;SDS011;37338;47.426;19.204;2023-11-19T10:26:27;14.70;;;10.50;;
51266;SDS011;37338;47.426;19.204;2023-11-19T10:28:53;13.83;;;10.17;;
51266;SDS011;37338;47.426;19.204;2023-11-19T10:31:20;13.83;;;10.40;;
51266;SDS011;37338;47.426;19.204;2023-11-19T10:33:52;15.03;;;9.57;;
51266;SDS011;37338;47.426;19.204;2023-11-19T10:36:18;14.43;;;9.50;;
51266;SDS011;37338;47.426;19.204;2023-11-19T10:39:01;20.50;;;10.83;;
51266;SDS011;37338;47.426;19.204;2023-11-19T10:43:56;12.20;;;9.20;;
51266;SDS011;37338;47.426;19.204;2023-11-19T10:46:22;17.40;;;9.03;;
51266;SDS011;37338;47.426;19.204;2023-11-19T10:48:48;11.43;;;8.77;;
51266;SDS011;37338;47.426;19.204;2023-11-19T10:51:16;12.47;;;8.90;;
51266;SDS011;37338;47.426;19.204;2023-11-19T10:53:46;14.07;;;9.70;;
51266;SDS011;37338;47.426;19.204;2023-11-19T10:56:13;15.37;;;10.50;;
51266;SDS011;37338;47.426;19.204;2023-11-19T10:58:44;12.80;;;9.00;;
51266;SDS011;37338;47.426;19.204;2023-11-19T11:01:14;29.07;;;10.63;;
51266;SDS011;37338;47.426;19.204;2023-11-19T11:03:43;13.57;;;10.00;;
51266;SDS011;37338;47.426;19.204;2023-11-19T11:06:11;15.00;;;9.87;;
51266;SDS011;37338;47.426;19.204;2023-11-19T11:08:38;13.43;;;8.50;;
51266;SDS011;37338;47.426;19.204;2023-11-19T11:11:04;11.80;;;8.60;;
51266;SDS011;37338;47.426;19.204;2023-11-19T11:13:31;17.93;;;9.53;;
51266;SDS011;37338;47.426;19.204;2023-11-19T11:15:57;17.00;;;10.90;;
51266;SDS011;37338;47.426;19.204;2023-11-19T11:18:23;15.77;;;10.60;;
51266;SDS011;37338;47.426;19.204;2023-11-19T11:21:25;16.53;;;10.73;;
51266;SDS011;37338;47.426;19.204;2023-11-19T11:23:52;17.03;;;11.20;;
51266;SDS011;37338;47.426;19.204;2023-11-19T11:26:33;18.77;;;12.53;;
51266;SDS011;37338;47.426;19.204;2023-11-19T11:31:55;15.30;;;10.70;;
51266;SDS011;37338;47.426;19.204;2023-11-19T11:37:11;12.77;;;9.57;;
51266;SDS011;37338;47.426;19.204;2023-11-19T11:39:45;19.53;;;8.67;;
51266;SDS011;37338;47.426;19.204;2023-11-19T11:45:03;11.50;;;8.20;;
51266;SDS011;37338;47.426;19.204;2023-11-19T11:50:16;9.60;;;7.10;;
51266;SDS011;37338;47.426;19.204;2023-11-19T11:55:37;8.43;;;6.33;;
51266;SDS011;37338;47.426;19.204;2023-11-19T11:58:20;9.70;;;6.70;;
51266;SDS011;37338;47.426;19.204;2023-11-19T12:00:58;8.73;;;6.60;;
51266;SDS011;37338;47.426;19.204;2023-11-19T12:03:26;10.30;;;7.93;;
51266;SDS011;37338;47.426;19.204;2023-11-19T12:05:52;11.53;;;7.90;;
51266;SDS011;37338;47.426;19.204;2023-11-19T12:08:18;10.37;;;7.17;;
51266;SDS011;37338;47.426;19.204;2023-11-19T12:10:52;8.37;;;6.20;;
51266;SDS011;37338;47.426;19.204;2023-11-19T12:13:19;9.13;;;6.60;;
51266;SDS011;37338;47.426;19.204;2023-11-19T12:18:21;12.20;;;7.80;;
51266;SDS011;37338;47.426;19.204;2023-11-19T12:20:48;11.57;;;7.33;;
51266;SDS011;37338;47.426;19.204;2023-11-19T12:23:13;11.93;;;8.27;;
51266;SDS011;37338;47.426;19.204;2023-11-19T12:25:39;13.80;;;8.20;;
51266;SDS011;37338;47.426;19.204;2023-11-19T12:28:05;12.87;;;8.97;;
51266;SDS011;37338;47.426;19.204;2023-11-19T12:30:30;12.53;;;8.10;;
51266;SDS011;37338;47.426;19.204;2023-11-19T12:32:56;11.00;;;8.07;;
51266;SDS011;37338;47.426;19.204;2023-11-19T12:35:22;13.63;;;8.37;;
51266;SDS011;37338;47.426;19.204;2023-11-19T12:37:49;12.87;;;8.90;;
51266;SDS011;37338;47.426;19.204;2023-11-19T12:42:48;12.63;;;8.23;;
51266;SDS011;37338;47.426;19.204;2023-11-19T12:45:14;11.93;;;8.03;;
51266;SDS011;37338;47.426;19.204;2023-11-19T12:47:41;12.20;;;7.63;;
51266;SDS011;37338;47.426;19.204;2023-11-19T12:50:07;11.80;;;6.93;;
51266;SDS011;37338;47.426;19.204;2023-11-19T12:52:34;10.03;;;7.67;;
51266;SDS011;37338;47.426;19.204;2023-11-19T12:55:06;11.10;;;7.80;;
51266;SDS011;37338;47.426;19.204;2023-11-19T12:57:50;13.83;;;8.57;;
51266;SDS011;37338;47.426;19.204;2023-11-19T13:00:19;9.03;;;7.23;;
51266;SDS011;37338;47.426;19.204;2023-11-19T13:02:51;11.38;;;7.43;;
51266;SDS011;37338;47.426;19.204;2023-11-19T13:07:49;11.33;;;7.90;;
51266;SDS011;37338;47.426;19.204;2023-11-19T13:10:15;12.77;;;8.00;;
51266;SDS011;37338;47.426;19.204;2023-11-19T13:12:40;12.10;;;7.83;;
51266;SDS011;37338;47.426;19.204;2023-11-19T13:15:06;10.37;;;7.80;;
51266;SDS011;37338;47.426;19.204;2023-11-19T13:17:32;11.60;;;8.43;;
51266;SDS011;37338;47.426;19.204;2023-11-19T13:19:57;12.07;;;8.33;;
51266;SDS011;37338;47.426;19.204;2023-11-19T13:22:22;9.40;;;7.00;;
51266;SDS011;37338;47.426;19.204;2023-11-19T13:24:48;10.57;;;7.57;;
51266;SDS011;37338;47.426;19.204;2023-11-19T13:27:13;9.57;;;7.33;;
51266;SDS011;37338;47.426;19.204;2023-11-19T13:29:39;10.17;;;7.47;;
51266;SDS011;37338;47.426;19.204;2023-11-19T13:32:04;11.13;;;7.77;;
51266;SDS011;37338;47.426;19.204;2023-11-19T13:34:30;11.20;;;7.53;;
51266;SDS011;37338;47.426;19.204;2023-11-19T13:36:56;10.13;;;7.40;;
51266;SDS011;37338;47.426;19.204;2023-11-19T13:39:21;9.97;;;7.73;;
51266;SDS011;37338;47.426;19.204;2023-11-19T13:41:48;11.20;;;7.70;;
51266;SDS011;37338;47.426;19.204;2023-11-19T13:44:15;11.63;;;8.63;;
51266;SDS011;37338;47.426;19.204;2023-11-19T13:46:41;13.77;;;8.13;;
51266;SDS011;37338;47.426;19.204;2023-11-19T13:49:06;11.23;;;7.57;;
51266;SDS011;37338;47.426;19.204;2023-11-19T13:51:32;16.93;;;10.80;;
51266;SDS011;37338;47.426;19.204;2023-11-19T13:53:57;13.63;;;10.03;;
51266;SDS011;37338;47.426;19.204;2023-11-19T13:56:23;14.23;;;9.17;;
51266;SDS011;37338;47.426;19.204;2023-11-19T13:58:49;12.23;;;7.13;;
51266;SDS011;37338;47.426;19.204;2023-11-19T14:01:14;10.97;;;8.23;;
51266;SDS011;37338;47.426;19.204;2023-11-19T14:03:39;12.23;;;8.27;;
51266;SDS011;37338;47.426;19.204;2023-11-19T14:06:05;12.93;;;8.20;;
51266;SDS011;37338;47.426;19.204;2023-11-19T14:08:33;10.70;;;8.13;;
51266;SDS011;37338;47.426;19.204;2023-11-19T14:10:58;14.83;;;8.53;;
51266;SDS011;37338;47.426;19.204;2023-11-19T14:13:24;12.47;;;8.87;;
51266;SDS011;37338;47.426;19.204;2023-11-19T14:15:49;15.13;;;7.60;;
51266;SDS011;37338;47.426;19.204;2023-11-19T14:18:15;6.90;;;5.53;;
51266;SDS011;37338;47.426;19.204;2023-11-19T14:20:40;10.50;;;7.17;;
51266;SDS011;37338;47.426;19.204;2023-11-19T14:23:06;8.27;;;5.40;;
51266;SDS011;37338;47.426;19.204;2023-11-19T14:25:31;7.60;;;5.50;;
51266;SDS011;37338;47.426;19.204;2023-11-19T14:27:57;13.40;;;6.97;;
51266;SDS011;37338;47.426;19.204;2023-11-19T14:30:22;8.43;;;6.00;;
51266;SDS011;37338;47.426;19.204;2023-11-19T14:32:47;10.83;;;7.00;;
51266;SDS011;37338;47.426;19.204;2023-11-19T14:35:14;7.20;;;5.63;;
51266;SDS011;37338;47.426;19.204;2023-11-19T14:37:40;8.87;;;6.00;;